Archival Weather

Dewar Lakes

Dewar Lakes, Canada (CWUW)

Report from: Friday, May 26, 2023 6:00 AM EDT
Current time: Thursday, July 18, 2024 11:04 PM EDT

Current weather – Weather history – Daily summaries
Weather forecast

Present weatherSM
Temperature-15.0°C (5.0°F)
Wind chill-26.0°C (-14.7°F)
Dew point-16.0°C (3.2°F)
Winds 16 kts (8.2 m/s, 18.4 mph) Northwest (310°)
Visibility0 ft. (0 m)
Altimeter29.58 in.Hg (1002 mB)
Relative humidity92 %
Density altitude-3,362 ft. (-1,025 m)
Remarks Fully automated report
Flight conditions Low Instrument Meteorological Conditions
Raw dataCWUW 261000Z AUTO 31016KT ////SM ////// M15/M16 A2958
An error has occurred. This application may no longer respond until reloaded. Reload 🗙